sensor_id;sensor_type;location;lat;lon;timestamp;P1;durP1;ratioP1;P2;durP2;ratioP2
20976;SDS011;10647;51.016;3.720;2022-09-09T00:00:22;8.83;;;2.87;;
20976;SDS011;10647;51.016;3.720;2022-09-09T00:09:00;8.10;;;2.47;;
20976;SDS011;10647;51.016;3.720;2022-09-09T00:14:23;7.73;;;2.50;;
20976;SDS011;10647;51.016;3.720;2022-09-09T00:17:01;8.10;;;2.53;;
20976;SDS011;10647;51.016;3.720;2022-09-09T00:22:08;9.20;;;2.50;;
20976;SDS011;10647;51.016;3.720;2022-09-09T00:24:54;9.30;;;2.30;;
20976;SDS011;10647;51.016;3.720;2022-09-09T00:27:27;8.10;;;2.30;;
20976;SDS011;10647;51.016;3.720;2022-09-09T00:30:17;10.60;;;2.60;;
20976;SDS011;10647;51.016;3.720;2022-09-09T00:35:58;8.27;;;2.30;;
20976;SDS011;10647;51.016;3.720;2022-09-09T00:38:36;7.30;;;2.20;;
20976;SDS011;10647;51.016;3.720;2022-09-09T00:41:13;9.23;;;2.70;;
20976;SDS011;10647;51.016;3.720;2022-09-09T00:43:57;6.87;;;2.47;;
20976;SDS011;10647;51.016;3.720;2022-09-09T00:52:11;7.33;;;2.20;;
20976;SDS011;10647;51.016;3.720;2022-09-09T00:57:45;6.07;;;2.10;;
20976;SDS011;10647;51.016;3.720;2022-09-09T01:00:30;6.70;;;2.43;;
20976;SDS011;10647;51.016;3.720;2022-09-09T01:06:11;9.30;;;2.50;;
20976;SDS011;10647;51.016;3.720;2022-09-09T01:17:21;10.10;;;2.47;;
20976;SDS011;10647;51.016;3.720;2022-09-09T01:31:05;7.03;;;1.70;;
20976;SDS011;10647;51.016;3.720;2022-09-09T01:33:38;8.57;;;2.00;;
20976;SDS011;10647;51.016;3.720;2022-09-09T01:36:26;9.97;;;2.30;;
20976;SDS011;10647;51.016;3.720;2022-09-09T01:39:10;10.00;;;2.40;;
20976;SDS011;10647;51.016;3.720;2022-09-09T01:41:44;7.83;;;2.10;;
20976;SDS011;10647;51.016;3.720;2022-09-09T01:44:17;6.07;;;1.70;;
20976;SDS011;10647;51.016;3.720;2022-09-09T01:46:47;12.70;;;2.00;;
20976;SDS011;10647;51.016;3.720;2022-09-09T01:49:20;10.00;;;2.20;;
20976;SDS011;10647;51.016;3.720;2022-09-09T01:54:31;9.13;;;2.60;;
20976;SDS011;10647;51.016;3.720;2022-09-09T02:00:05;7.77;;;2.23;;
20976;SDS011;10647;51.016;3.720;2022-09-09T02:05:36;6.43;;;2.20;;
20976;SDS011;10647;51.016;3.720;2022-09-09T02:08:13;15.80;;;2.43;;
20976;SDS011;10647;51.016;3.720;2022-09-09T02:13:46;10.63;;;2.20;;
20976;SDS011;10647;51.016;3.720;2022-09-09T02:16:24;9.17;;;2.50;;
20976;SDS011;10647;51.016;3.720;2022-09-09T02:19:08;7.73;;;2.50;;
20976;SDS011;10647;51.016;3.720;2022-09-09T02:21:41;16.67;;;3.33;;
20976;SDS011;10647;51.016;3.720;2022-09-09T02:24:10;8.30;;;2.60;;
20976;SDS011;10647;51.016;3.720;2022-09-09T02:29:30;14.57;;;2.87;;
20976;SDS011;10647;51.016;3.720;2022-09-09T02:32:02;9.33;;;2.33;;
20976;SDS011;10647;51.016;3.720;2022-09-09T02:34:39;11.43;;;2.33;;
20976;SDS011;10647;51.016;3.720;2022-09-09T02:37:08;12.50;;;2.53;;
20976;SDS011;10647;51.016;3.720;2022-09-09T02:39:43;7.20;;;2.10;;
20976;SDS011;10647;51.016;3.720;2022-09-09T02:42:12;15.53;;;2.67;;
20976;SDS011;10647;51.016;3.720;2022-09-09T02:44:43;13.53;;;2.20;;
20976;SDS011;10647;51.016;3.720;2022-09-09T02:52:54;16.17;;;2.47;;
20976;SDS011;10647;51.016;3.720;2022-09-09T02:55:47;11.33;;;2.37;;
20976;SDS011;10647;51.016;3.720;2022-09-09T02:58:19;9.63;;;2.53;;
20976;SDS011;10647;51.016;3.720;2022-09-09T03:03:19;11.17;;;2.77;;
20976;SDS011;10647;51.016;3.720;2022-09-09T03:05:53;10.03;;;2.13;;
20976;SDS011;10647;51.016;3.720;2022-09-09T03:08:22;8.60;;;2.37;;
20976;SDS011;10647;51.016;3.720;2022-09-09T03:10:57;13.70;;;2.27;;
20976;SDS011;10647;51.016;3.720;2022-09-09T03:13:28;9.73;;;2.30;;
20976;SDS011;10647;51.016;3.720;2022-09-09T03:16:01;8.83;;;2.53;;
20976;SDS011;10647;51.016;3.720;2022-09-09T03:18:30;10.23;;;2.20;;
20976;SDS011;10647;51.016;3.720;2022-09-09T03:21:00;9.10;;;2.40;;
20976;SDS011;10647;51.016;3.720;2022-09-09T03:23:27;11.57;;;2.63;;
20976;SDS011;10647;51.016;3.720;2022-09-09T03:25:55;11.90;;;2.53;;
20976;SDS011;10647;51.016;3.720;2022-09-09T03:28:24;10.13;;;2.10;;
20976;SDS011;10647;51.016;3.720;2022-09-09T03:30:57;10.90;;;2.00;;
20976;SDS011;10647;51.016;3.720;2022-09-09T03:33:24;13.17;;;2.67;;
20976;SDS011;10647;51.016;3.720;2022-09-09T03:35:51;14.00;;;2.30;;
20976;SDS011;10647;51.016;3.720;2022-09-09T03:38:24;10.17;;;2.30;;
20976;SDS011;10647;51.016;3.720;2022-09-09T03:40:55;10.83;;;2.20;;
20976;SDS011;10647;51.016;3.720;2022-09-09T03:43:23;11.53;;;2.30;;
20976;SDS011;10647;51.016;3.720;2022-09-09T03:45:52;11.20;;;2.20;;
20976;SDS011;10647;51.016;3.720;2022-09-09T03:48:22;9.97;;;2.10;;
20976;SDS011;10647;51.016;3.720;2022-09-09T03:50:52;11.10;;;2.40;;
20976;SDS011;10647;51.016;3.720;2022-09-09T03:53:27;13.47;;;2.33;;
20976;SDS011;10647;51.016;3.720;2022-09-09T03:55:57;12.97;;;2.23;;
20976;SDS011;10647;51.016;3.720;2022-09-09T04:00:57;12.50;;;2.50;;
20976;SDS011;10647;51.016;3.720;2022-09-09T04:03:49;10.23;;;2.30;;
20976;SDS011;10647;51.016;3.720;2022-09-09T04:06:19;12.70;;;2.30;;
20976;SDS011;10647;51.016;3.720;2022-09-09T04:08:47;11.17;;;2.40;;
20976;SDS011;10647;51.016;3.720;2022-09-09T04:13:48;9.47;;;2.40;;
20976;SDS011;10647;51.016;3.720;2022-09-09T04:16:16;19.30;;;2.77;;
20976;SDS011;10647;51.016;3.720;2022-09-09T04:18:43;13.70;;;2.10;;
20976;SDS011;10647;51.016;3.720;2022-09-09T04:21:17;11.90;;;2.53;;
20976;SDS011;10647;51.016;3.720;2022-09-09T04:23:50;14.83;;;2.50;;
20976;SDS011;10647;51.016;3.720;2022-09-09T04:26:24;14.77;;;2.30;;
20976;SDS011;10647;51.016;3.720;2022-09-09T04:28:57;13.40;;;2.83;;
20976;SDS011;10647;51.016;3.720;2022-09-09T04:31:24;13.13;;;2.53;;
20976;SDS011;10647;51.016;3.720;2022-09-09T04:33:52;13.37;;;2.60;;
20976;SDS011;10647;51.016;3.720;2022-09-09T04:38:53;16.30;;;2.40;;
20976;SDS011;10647;51.016;3.720;2022-09-09T04:41:22;16.83;;;2.87;;
20976;SDS011;10647;51.016;3.720;2022-09-09T04:43:49;13.07;;;2.43;;
20976;SDS011;10647;51.016;3.720;2022-09-09T04:46:23;16.30;;;3.13;;
20976;SDS011;10647;51.016;3.720;2022-09-09T04:48:52;13.90;;;3.00;;
20976;SDS011;10647;51.016;3.720;2022-09-09T04:51:20;14.83;;;2.47;;
20976;SDS011;10647;51.016;3.720;2022-09-09T04:53:47;14.17;;;2.70;;
20976;SDS011;10647;51.016;3.720;2022-09-09T04:56:16;10.47;;;2.50;;
20976;SDS011;10647;51.016;3.720;2022-09-09T04:58:44;13.03;;;3.07;;
20976;SDS011;10647;51.016;3.720;2022-09-09T05:01:16;18.77;;;2.70;;
20976;SDS011;10647;51.016;3.720;2022-09-09T05:03:45;10.63;;;1.83;;
20976;SDS011;10647;51.016;3.720;2022-09-09T05:06:14;12.53;;;2.97;;
20976;SDS011;10647;51.016;3.720;2022-09-09T05:08:44;15.57;;;3.00;;
20976;SDS011;10647;51.016;3.720;2022-09-09T05:11:19;12.83;;;2.80;;
20976;SDS011;10647;51.016;3.720;2022-09-09T05:13:55;15.67;;;2.80;;
20976;SDS011;10647;51.016;3.720;2022-09-09T05:16:24;14.03;;;3.37;;
20976;SDS011;10647;51.016;3.720;2022-09-09T05:18:55;17.17;;;3.23;;
20976;SDS011;10647;51.016;3.720;2022-09-09T05:26:46;11.70;;;2.80;;
20976;SDS011;10647;51.016;3.720;2022-09-09T05:29:16;16.83;;;3.37;;
20976;SDS011;10647;51.016;3.720;2022-09-09T05:31:45;12.93;;;2.63;;
20976;SDS011;10647;51.016;3.720;2022-09-09T05:34:12;10.17;;;2.87;;
20976;SDS011;10647;51.016;3.720;2022-09-09T05:36:40;11.97;;;2.97;;
20976;SDS011;10647;51.016;3.720;2022-09-09T05:39:08;13.00;;;2.40;;
20976;SDS011;10647;51.016;3.720;2022-09-09T05:41:38;10.97;;;3.17;;
20976;SDS011;10647;51.016;3.720;2022-09-09T05:44:05;18.50;;;2.70;;
20976;SDS011;10647;51.016;3.720;2022-09-09T05:46:33;17.10;;;2.90;;
20976;SDS011;10647;51.016;3.720;2022-09-09T05:49:06;11.23;;;2.87;;
20976;SDS011;10647;51.016;3.720;2022-09-09T05:51:40;13.90;;;2.87;;
20976;SDS011;10647;51.016;3.720;2022-09-09T05:54:14;15.00;;;2.67;;
20976;SDS011;10647;51.016;3.720;2022-09-09T05:56:42;13.33;;;3.10;;
20976;SDS011;10647;51.016;3.720;2022-09-09T05:59:10;10.63;;;2.70;;
20976;SDS011;10647;51.016;3.720;2022-09-09T06:01:44;14.20;;;2.63;;
20976;SDS011;10647;51.016;3.720;2022-09-09T06:04:11;12.13;;;2.40;;
20976;SDS011;10647;51.016;3.720;2022-09-09T06:09:09;14.80;;;2.67;;
20976;SDS011;10647;51.016;3.720;2022-09-09T06:11:38;13.40;;;2.97;;
20976;SDS011;10647;51.016;3.720;2022-09-09T06:14:06;16.87;;;3.10;;
20976;SDS011;10647;51.016;3.720;2022-09-09T06:16:35;14.47;;;3.10;;
20976;SDS011;10647;51.016;3.720;2022-09-09T06:19:09;15.20;;;3.33;;
20976;SDS011;10647;51.016;3.720;2022-09-09T06:21:39;19.17;;;3.63;;
20976;SDS011;10647;51.016;3.720;2022-09-09T06:24:12;15.90;;;4.30;;
20976;SDS011;10647;51.016;3.720;2022-09-09T06:26:42;18.57;;;3.60;;
20976;SDS011;10647;51.016;3.720;2022-09-09T06:29:11;20.00;;;4.37;;
20976;SDS011;10647;51.016;3.720;2022-09-09T06:31:39;15.13;;;3.40;;
20976;SDS011;10647;51.016;3.720;2022-09-09T06:34:09;14.03;;;3.93;;
20976;SDS011;10647;51.016;3.720;2022-09-09T06:36:37;16.63;;;3.47;;
20976;SDS011;10647;51.016;3.720;2022-09-09T06:39:06;22.60;;;3.90;;
20976;SDS011;10647;51.016;3.720;2022-09-09T06:41:36;15.07;;;3.63;;
20976;SDS011;10647;51.016;3.720;2022-09-09T06:49:28;18.93;;;3.10;;
20976;SDS011;10647;51.016;3.720;2022-09-09T06:51:59;13.50;;;2.97;;
20976;SDS011;10647;51.016;3.720;2022-09-09T06:54:26;16.13;;;2.87;;
20976;SDS011;10647;51.016;3.720;2022-09-09T06:56:54;15.50;;;3.00;;
20976;SDS011;10647;51.016;3.720;2022-09-09T06:59:27;14.57;;;3.13;;
20976;SDS011;10647;51.016;3.720;2022-09-09T07:02:02;12.53;;;2.67;;
20976;SDS011;10647;51.016;3.720;2022-09-09T07:04:33;13.87;;;2.97;;
20976;SDS011;10647;51.016;3.720;2022-09-09T07:07:02;12.23;;;2.77;;
20976;SDS011;10647;51.016;3.720;2022-09-09T07:09:32;16.27;;;2.42;;
20976;SDS011;10647;51.016;3.720;2022-09-09T07:14:31;14.78;;;2.77;;
20976;SDS011;10647;51.016;3.720;2022-09-09T07:17:06;11.43;;;2.80;;
20976;SDS011;10647;51.016;3.720;2022-09-09T07:19:34;11.90;;;2.75;;
20976;SDS011;10647;51.016;3.720;2022-09-09T07:22:07;15.25;;;3.05;;
20976;SDS011;10647;51.016;3.720;2022-09-09T07:24:39;8.60;;;2.27;;
20976;SDS011;10647;51.016;3.720;2022-09-09T07:27:07;14.38;;;2.55;;
20976;SDS011;10647;51.016;3.720;2022-09-09T07:29:34;10.18;;;2.10;;
20976;SDS011;10647;51.016;3.720;2022-09-09T07:32:03;14.78;;;2.47;;
20976;SDS011;10647;51.016;3.720;2022-09-09T07:34:30;12.47;;;2.30;;
20976;SDS011;10647;51.016;3.720;2022-09-09T07:36:58;13.25;;;2.80;;
20976;SDS011;10647;51.016;3.720;2022-09-09T07:39:25;9.60;;;2.60;;
20976;SDS011;10647;51.016;3.720;2022-09-09T07:41:53;9.35;;;2.35;;
20976;SDS011;10647;51.016;3.720;2022-09-09T07:44:21;12.10;;;2.10;;
20976;SDS011;10647;51.016;3.720;2022-09-09T07:46:59;13.32;;;2.10;;
20976;SDS011;10647;51.016;3.720;2022-09-09T07:49:30;9.15;;;2.17;;
20976;SDS011;10647;51.016;3.720;2022-09-09T07:51:58;13.75;;;2.90;;
20976;SDS011;10647;51.016;3.720;2022-09-09T07:54:27;11.97;;;2.30;;
20976;SDS011;10647;51.016;3.720;2022-09-09T07:56:55;17.73;;;2.95;;
20976;SDS011;10647;51.016;3.720;2022-09-09T07:59:36;11.40;;;2.55;;
20976;SDS011;10647;51.016;3.720;2022-09-09T08:02:13;13.25;;;2.90;;
20976;SDS011;10647;51.016;3.720;2022-09-09T08:04:46;11.93;;;2.90;;
20976;SDS011;10647;51.016;3.720;2022-09-09T08:07:15;15.32;;;2.67;;
20976;SDS011;10647;51.016;3.720;2022-09-09T08:09:49;11.95;;;3.15;;
20976;SDS011;10647;51.016;3.720;2022-09-09T08:12:16;13.23;;;2.80;;
20976;SDS011;10647;51.016;3.720;2022-09-09T08:14:44;14.43;;;3.07;;
20976;SDS011;10647;51.016;3.720;2022-09-09T08:17:12;10.30;;;3.10;;
20976;SDS011;10647;51.016;3.720;2022-09-09T08:19:45;12.73;;;2.77;;
20976;SDS011;10647;51.016;3.720;2022-09-09T08:22:19;11.73;;;3.03;;
20976;SDS011;10647;51.016;3.720;2022-09-09T08:24:50;13.93;;;2.60;;
20976;SDS011;10647;51.016;3.720;2022-09-09T08:27:18;14.50;;;3.30;;
20976;SDS011;10647;51.016;3.720;2022-09-09T08:29:45;12.17;;;2.63;;
20976;SDS011;10647;51.016;3.720;2022-09-09T08:32:13;10.97;;;2.30;;
20976;SDS011;10647;51.016;3.720;2022-09-09T08:34:47;7.83;;;2.02;;
20976;SDS011;10647;51.016;3.720;2022-09-09T08:37:15;6.73;;;2.17;;
20976;SDS011;10647;51.016;3.720;2022-09-09T08:42:35;10.40;;;2.17;;
20976;SDS011;10647;51.016;3.720;2022-09-09T08:45:33;8.90;;;2.20;;
20976;SDS011;10647;51.016;3.720;2022-09-09T08:48:13;12.73;;;2.60;;
20976;SDS011;10647;51.016;3.720;2022-09-09T08:50:40;7.20;;;1.80;;
20976;SDS011;10647;51.016;3.720;2022-09-09T08:53:26;11.00;;;2.00;;
20976;SDS011;10647;51.016;3.720;2022-09-09T08:55:58;11.43;;;2.37;;
20976;SDS011;10647;51.016;3.720;2022-09-09T08:58:32;7.90;;;2.20;;
20976;SDS011;10647;51.016;3.720;2022-09-09T09:06:39;10.05;;;1.98;;
20976;SDS011;10647;51.016;3.720;2022-09-09T09:09:09;9.00;;;2.33;;
20976;SDS011;10647;51.016;3.720;2022-09-09T09:11:49;7.20;;;1.67;;
20976;SDS011;10647;51.016;3.720;2022-09-09T09:14:29;5.90;;;1.47;;
20976;SDS011;10647;51.016;3.720;2022-09-09T09:17:03;8.63;;;2.00;;
20976;SDS011;10647;51.016;3.720;2022-09-09T09:19:34;7.12;;;1.70;;
20976;SDS011;10647;51.016;3.720;2022-09-09T09:22:15;7.75;;;1.90;;
20976;SDS011;10647;51.016;3.720;2022-09-09T09:30:38;6.85;;;1.98;;
20976;SDS011;10647;51.016;3.720;2022-09-09T09:36:33;7.70;;;1.67;;
20976;SDS011;10647;51.016;3.720;2022-09-09T09:39:08;7.45;;;1.67;;
20976;SDS011;10647;51.016;3.720;2022-09-09T09:41:36;6.25;;;1.60;;
20976;SDS011;10647;51.016;3.720;2022-09-09T09:44:29;7.40;;;1.67;;
20976;SDS011;10647;51.016;3.720;2022-09-09T09:46:52;9.85;;;2.10;;
20976;SDS011;10647;51.016;3.720;2022-09-09T09:49:21;7.55;;;1.75;;
20976;SDS011;10647;51.016;3.720;2022-09-09T09:51:48;6.40;;;2.20;;
20976;SDS011;10647;51.016;3.720;2022-09-09T09:54:22;5.70;;;1.70;;
20976;SDS011;10647;51.016;3.720;2022-09-09T09:59:24;7.08;;;1.72;;
20976;SDS011;10647;51.016;3.720;2022-09-09T10:05:00;7.53;;;1.92;;
20976;SDS011;10647;51.016;3.720;2022-09-09T10:07:33;8.15;;;2.10;;
20976;SDS011;10647;51.016;3.720;2022-09-09T10:10:02;7.95;;;1.90;;
20976;SDS011;10647;51.016;3.720;2022-09-09T10:12:34;5.28;;;1.72;;
20976;SDS011;10647;51.016;3.720;2022-09-09T10:26:59;6.10;;;1.50;;
20976;SDS011;10647;51.016;3.720;2022-09-09T10:32:28;7.40;;;1.72;;
20976;SDS011;10647;51.016;3.720;2022-09-09T10:40:26;7.67;;;1.65;;
20976;SDS011;10647;51.016;3.720;2022-09-09T10:56:16;5.35;;;1.52;;
20976;SDS011;10647;51.016;3.720;2022-09-09T10:58:55;6.17;;;1.42;;
20976;SDS011;10647;51.016;3.720;2022-09-09T11:01:40;4.65;;;1.27;;
20976;SDS011;10647;51.016;3.720;2022-09-09T11:04:16;6.33;;;1.45;;
20976;SDS011;10647;51.016;3.720;2022-09-09T11:06:53;4.00;;;1.35;;
20976;SDS011;10647;51.016;3.720;2022-09-09T11:09:27;7.22;;;1.27;;
20976;SDS011;10647;51.016;3.720;2022-09-09T11:11:53;4.37;;;1.10;;
20976;SDS011;10647;51.016;3.720;2022-09-09T11:14:41;4.37;;;1.17;;
20976;SDS011;10647;51.016;3.720;2022-09-09T11:19:54;3.45;;;1.12;;
20976;SDS011;10647;51.016;3.720;2022-09-09T11:22:34;5.95;;;1.42;;
20976;SDS011;10647;51.016;3.720;2022-09-09T11:33:55;2.65;;;0.95;;
20976;SDS011;10647;51.016;3.720;2022-09-09T11:36:47;4.08;;;1.00;;
20976;SDS011;10647;51.016;3.720;2022-09-09T11:41:53;4.35;;;1.05;;
20976;SDS011;10647;51.016;3.720;2022-09-09T11:46:57;2.50;;;0.80;;
20976;SDS011;10647;51.016;3.720;2022-09-09T11:52:12;3.67;;;1.02;;
20976;SDS011;10647;51.016;3.720;2022-09-09T11:54:54;5.78;;;1.30;;
20976;SDS011;10647;51.016;3.720;2022-09-09T11:57:34;5.22;;;1.20;;
20976;SDS011;10647;51.016;3.720;2022-09-09T12:00:27;4.60;;;1.25;;
20976;SDS011;10647;51.016;3.720;2022-09-09T12:02:59;2.80;;;0.80;;
20976;SDS011;10647;51.016;3.720;2022-09-09T12:08:27;6.60;;;1.10;;
20976;SDS011;10647;51.016;3.720;2022-09-09T12:10:58;4.90;;;1.32;;
20976;SDS011;10647;51.016;3.720;2022-09-09T12:13:28;4.67;;;1.30;;
20976;SDS011;10647;51.016;3.720;2022-09-09T12:15:58;5.33;;;1.20;;
20976;SDS011;10647;51.016;3.720;2022-09-09T12:18:35;3.77;;;1.15;;
20976;SDS011;10647;51.016;3.720;2022-09-09T12:21:14;5.37;;;1.02;;
20976;SDS011;10647;51.016;3.720;2022-09-09T12:23:47;3.92;;;1.20;;
20976;SDS011;10647;51.016;3.720;2022-09-09T12:26:41;6.47;;;1.47;;
20976;SDS011;10647;51.016;3.720;2022-09-09T12:29:23;3.35;;;1.35;;
20976;SDS011;10647;51.016;3.720;2022-09-09T12:32:10;4.83;;;1.02;;
20976;SDS011;10647;51.016;3.720;2022-09-09T12:34:55;3.85;;;1.07;;
20976;SDS011;10647;51.016;3.720;2022-09-09T12:37:29;3.47;;;0.93;;
20976;SDS011;10647;51.016;3.720;2022-09-09T12:40:04;6.97;;;1.17;;
20976;SDS011;10647;51.016;3.720;2022-09-09T12:42:40;5.10;;;1.27;;
20976;SDS011;10647;51.016;3.720;2022-09-09T12:45:20;3.08;;;0.90;;
20976;SDS011;10647;51.016;3.720;2022-09-09T12:48:03;6.05;;;1.20;;
20976;SDS011;10647;51.016;3.720;2022-09-09T12:50:43;5.37;;;1.25;;
20976;SDS011;10647;51.016;3.720;2022-09-09T12:53:12;4.08;;;1.25;;
20976;SDS011;10647;51.016;3.720;2022-09-09T12:55:48;5.67;;;1.47;;
20976;SDS011;10647;51.016;3.720;2022-09-09T12:58:24;5.47;;;1.40;;
20976;SDS011;10647;51.016;3.720;2022-09-09T13:00:54;2.95;;;1.10;;
20976;SDS011;10647;51.016;3.720;2022-09-09T13:03:23;3.22;;;1.25;;
20976;SDS011;10647;51.016;3.720;2022-09-09T13:05:53;5.08;;;1.47;;
20976;SDS011;10647;51.016;3.720;2022-09-09T13:08:26;6.45;;;2.90;;
20976;SDS011;10647;51.016;3.720;2022-09-09T13:10:58;4.10;;;1.10;;
20976;SDS011;10647;51.016;3.720;2022-09-09T13:13:34;5.33;;;1.40;;
20976;SDS011;10647;51.016;3.720;2022-09-09T13:16:04;6.17;;;1.55;;
20976;SDS011;10647;51.016;3.720;2022-09-09T13:18:40;4.90;;;1.12;;
20976;SDS011;10647;51.016;3.720;2022-09-09T13:21:13;5.90;;;1.42;;
20976;SDS011;10647;51.016;3.720;2022-09-09T13:23:42;4.42;;;1.20;;
20976;SDS011;10647;51.016;3.720;2022-09-09T13:26:25;7.08;;;1.32;;
20976;SDS011;10647;51.016;3.720;2022-09-09T13:28:55;6.58;;;1.00;;
20976;SDS011;10647;51.016;3.720;2022-09-09T13:31:44;4.90;;;1.40;;
20976;SDS011;10647;51.016;3.720;2022-09-09T13:37:02;6.55;;;1.30;;
20976;SDS011;10647;51.016;3.720;2022-09-09T13:39:36;4.78;;;1.20;;
20976;SDS011;10647;51.016;3.720;2022-09-09T13:42:04;6.80;;;1.12;;
20976;SDS011;10647;51.016;3.720;2022-09-09T13:44:38;5.03;;;1.00;;
20976;SDS011;10647;51.016;3.720;2022-09-09T13:47:05;7.67;;;1.40;;
20976;SDS011;10647;51.016;3.720;2022-09-09T13:49:34;5.20;;;1.35;;
20976;SDS011;10647;51.016;3.720;2022-09-09T13:52:08;4.67;;;1.30;;
20976;SDS011;10647;51.016;3.720;2022-09-09T13:54:48;4.62;;;1.20;;
20976;SDS011;10647;51.016;3.720;2022-09-09T13:59:48;2.83;;;1.10;;
20976;SDS011;10647;51.016;3.720;2022-09-09T14:02:16;5.10;;;1.20;;
20976;SDS011;10647;51.016;3.720;2022-09-09T14:04:49;3.70;;;1.17;;
20976;SDS011;10647;51.016;3.720;2022-09-09T14:07:22;7.97;;;1.85;;
20976;SDS011;10647;51.016;3.720;2022-09-09T14:09:51;5.83;;;1.40;;
20976;SDS011;10647;51.016;3.720;2022-09-09T14:14:55;6.08;;;1.62;;
20976;SDS011;10647;51.016;3.720;2022-09-09T14:17:31;5.80;;;1.60;;
20976;SDS011;10647;51.016;3.720;2022-09-09T14:19:59;3.02;;;1.62;;
20976;SDS011;10647;51.016;3.720;2022-09-09T14:22:28;8.25;;;1.67;;
20976;SDS011;10647;51.016;3.720;2022-09-09T14:25:02;4.03;;;1.50;;
20976;SDS011;10647;51.016;3.720;2022-09-09T14:27:31;6.85;;;1.60;;
20976;SDS011;10647;51.016;3.720;2022-09-09T14:29:58;6.92;;;1.42;;
20976;SDS011;10647;51.016;3.720;2022-09-09T14:32:26;5.35;;;1.30;;
20976;SDS011;10647;51.016;3.720;2022-09-09T14:34:54;6.58;;;1.30;;
20976;SDS011;10647;51.016;3.720;2022-09-09T14:37:24;3.40;;;1.05;;
20976;SDS011;10647;51.016;3.720;2022-09-09T14:39:52;9.00;;;1.20;;
20976;SDS011;10647;51.016;3.720;2022-09-09T14:42:19;6.53;;;1.12;;
20976;SDS011;10647;51.016;3.720;2022-09-09T14:44:47;3.62;;;1.00;;
20976;SDS011;10647;51.016;3.720;2022-09-09T14:47:15;9.90;;;1.15;;
20976;SDS011;10647;51.016;3.720;2022-09-09T14:49:42;4.22;;;1.20;;
20976;SDS011;10647;51.016;3.720;2022-09-09T14:52:11;3.25;;;1.10;;
20976;SDS011;10647;51.016;3.720;2022-09-09T14:54:39;7.17;;;1.20;;
20976;SDS011;10647;51.016;3.720;2022-09-09T14:57:06;4.87;;;1.40;;
20976;SDS011;10647;51.016;3.720;2022-09-09T14:59:34;6.47;;;1.60;;
20976;SDS011;10647;51.016;3.720;2022-09-09T15:02:01;9.03;;;1.40;;
20976;SDS011;10647;51.016;3.720;2022-09-09T15:04:29;5.47;;;1.22;;
20976;SDS011;10647;51.016;3.720;2022-09-09T15:06:57;9.03;;;1.72;;
20976;SDS011;10647;51.016;3.720;2022-09-09T15:09:25;5.08;;;1.10;;
20976;SDS011;10647;51.016;3.720;2022-09-09T15:11:52;7.05;;;1.20;;
20976;SDS011;10647;51.016;3.720;2022-09-09T15:14:20;2.70;;;0.90;;
20976;SDS011;10647;51.016;3.720;2022-09-09T15:16:48;5.42;;;0.98;;
20976;SDS011;10647;51.016;3.720;2022-09-09T15:19:15;10.40;;;1.00;;
20976;SDS011;10647;51.016;3.720;2022-09-09T15:21:43;3.27;;;1.00;;
20976;SDS011;10647;51.016;3.720;2022-09-09T15:24:10;6.53;;;1.22;;
20976;SDS011;10647;51.016;3.720;2022-09-09T15:26:39;5.95;;;1.05;;
20976;SDS011;10647;51.016;3.720;2022-09-09T15:29:07;2.95;;;0.80;;
20976;SDS011;10647;51.016;3.720;2022-09-09T15:31:40;4.15;;;1.30;;
20976;SDS011;10647;51.016;3.720;2022-09-09T15:34:08;5.17;;;0.98;;
20976;SDS011;10647;51.016;3.720;2022-09-09T15:36:46;5.78;;;0.90;;
20976;SDS011;10647;51.016;3.720;2022-09-09T15:39:13;2.95;;;1.10;;
20976;SDS011;10647;51.016;3.720;2022-09-09T15:41:43;7.25;;;1.42;;
20976;SDS011;10647;51.016;3.720;2022-09-09T15:44:12;3.62;;;1.27;;
20976;SDS011;10647;51.016;3.720;2022-09-09T15:46:42;3.52;;;1.20;;
20976;SDS011;10647;51.016;3.720;2022-09-09T15:49:15;2.90;;;1.02;;
20976;SDS011;10647;51.016;3.720;2022-09-09T15:51:45;4.45;;;1.30;;
20976;SDS011;10647;51.016;3.720;2022-09-09T15:54:16;6.53;;;1.42;;
20976;SDS011;10647;51.016;3.720;2022-09-09T15:56:49;7.12;;;1.20;;
20976;SDS011;10647;51.016;3.720;2022-09-09T15:59:18;4.67;;;1.20;;
20976;SDS011;10647;51.016;3.720;2022-09-09T16:01:45;2.83;;;1.27;;
20976;SDS011;10647;51.016;3.720;2022-09-09T16:04:13;7.97;;;1.20;;
20976;SDS011;10647;51.016;3.720;2022-09-09T16:06:42;3.37;;;1.07;;
20976;SDS011;10647;51.016;3.720;2022-09-09T16:09:10;4.25;;;1.20;;
20976;SDS011;10647;51.016;3.720;2022-09-09T16:11:37;4.72;;;1.15;;
20976;SDS011;10647;51.016;3.720;2022-09-09T16:14:06;5.53;;;1.90;;
20976;SDS011;10647;51.016;3.720;2022-09-09T16:16:33;5.87;;;1.40;;
20976;SDS011;10647;51.016;3.720;2022-09-09T16:19:08;3.00;;;1.10;;
20976;SDS011;10647;51.016;3.720;2022-09-09T16:21:42;3.62;;;1.10;;
20976;SDS011;10647;51.016;3.720;2022-09-09T16:24:12;5.12;;;1.30;;
20976;SDS011;10647;51.016;3.720;2022-09-09T16:26:42;4.45;;;1.22;;
20976;SDS011;10647;51.016;3.720;2022-09-09T16:29:12;2.67;;;1.30;;
20976;SDS011;10647;51.016;3.720;2022-09-09T16:31:40;6.10;;;1.32;;
20976;SDS011;10647;51.016;3.720;2022-09-09T16:34:09;6.83;;;1.72;;
20976;SDS011;10647;51.016;3.720;2022-09-09T16:36:37;6.55;;;1.42;;
20976;SDS011;10647;51.016;3.720;2022-09-09T16:39:08;8.10;;;1.55;;
20976;SDS011;10647;51.016;3.720;2022-09-09T16:41:38;5.50;;;1.77;;
20976;SDS011;10647;51.016;3.720;2022-09-09T16:44:07;3.83;;;1.47;;
20976;SDS011;10647;51.016;3.720;2022-09-09T16:46:40;5.67;;;1.50;;
20976;SDS011;10647;51.016;3.720;2022-09-09T16:49:10;7.00;;;1.82;;
20976;SDS011;10647;51.016;3.720;2022-09-09T16:51:44;6.22;;;1.85;;
20976;SDS011;10647;51.016;3.720;2022-09-09T16:54:31;4.75;;;1.80;;
20976;SDS011;10647;51.016;3.720;2022-09-09T16:57:01;6.15;;;1.80;;
20976;SDS011;10647;51.016;3.720;2022-09-09T16:59:28;6.97;;;2.00;;
20976;SDS011;10647;51.016;3.720;2022-09-09T17:01:57;7.97;;;2.10;;
20976;SDS011;10647;51.016;3.720;2022-09-09T17:04:25;9.23;;;2.87;;
20976;SDS011;10647;51.016;3.720;2022-09-09T17:06:54;5.83;;;2.00;;
20976;SDS011;10647;51.016;3.720;2022-09-09T17:09:23;7.75;;;2.20;;
20976;SDS011;10647;51.016;3.720;2022-09-09T17:11:53;10.25;;;2.25;;
20976;SDS011;10647;51.016;3.720;2022-09-09T17:14:21;6.17;;;2.00;;
20976;SDS011;10647;51.016;3.720;2022-09-09T17:16:49;8.73;;;2.10;;
20976;SDS011;10647;51.016;3.720;2022-09-09T17:19:17;4.65;;;1.77;;
20976;SDS011;10647;51.016;3.720;2022-09-09T17:21:45;8.40;;;2.17;;
20976;SDS011;10647;51.016;3.720;2022-09-09T17:24:15;8.58;;;2.30;;
20976;SDS011;10647;51.016;3.720;2022-09-09T17:26:48;9.53;;;2.17;;
20976;SDS011;10647;51.016;3.720;2022-09-09T17:29:16;6.90;;;2.08;;
20976;SDS011;10647;51.016;3.720;2022-09-09T17:31:43;11.28;;;2.10;;
20976;SDS011;10647;51.016;3.720;2022-09-09T17:34:11;8.30;;;2.22;;
20976;SDS011;10647;51.016;3.720;2022-09-09T17:36:39;6.97;;;2.20;;
20976;SDS011;10647;51.016;3.720;2022-09-09T17:39:06;9.90;;;1.90;;
20976;SDS011;10647;51.016;3.720;2022-09-09T17:41:37;8.60;;;1.80;;
20976;SDS011;10647;51.016;3.720;2022-09-09T17:44:06;9.20;;;2.08;;
20976;SDS011;10647;51.016;3.720;2022-09-09T17:46:41;11.30;;;2.17;;
20976;SDS011;10647;51.016;3.720;2022-09-09T17:49:11;9.50;;;2.02;;
20976;SDS011;10647;51.016;3.720;2022-09-09T17:51:37;8.55;;;2.45;;
20976;SDS011;10647;51.016;3.720;2022-09-09T17:54:08;9.48;;;2.42;;
20976;SDS011;10647;51.016;3.720;2022-09-09T17:56:41;9.58;;;1.87;;
20976;SDS011;10647;51.016;3.720;2022-09-09T17:59:10;8.35;;;1.57;;
20976;SDS011;10647;51.016;3.720;2022-09-09T18:01:40;8.18;;;1.65;;
20976;SDS011;10647;51.016;3.720;2022-09-09T18:04:09;10.48;;;1.85;;
20976;SDS011;10647;51.016;3.720;2022-09-09T18:06:39;11.48;;;1.95;;
20976;SDS011;10647;51.016;3.720;2022-09-09T18:09:10;9.98;;;2.05;;